sensor_id;sensor_type;location;lat;lon;timestamp;pressure;altitude;pressure_sealevel;temperature;humidity
29935;BME280;19905;53.370;-6.314;2023-05-23T00:01:30;102540.44;;;11.98;100.00
29935;BME280;19905;53.370;-6.314;2023-05-23T00:03:58;102538.50;;;12.02;100.00
29935;BME280;19905;53.370;-6.314;2023-05-23T00:06:29;102528.75;;;12.02;100.00
29935;BME280;19905;53.370;-6.314;2023-05-23T00:08:58;102531.31;;;12.04;100.00
29935;BME280;19905;53.370;-6.314;2023-05-23T00:11:27;102537.44;;;11.88;100.00
29935;BME280;19905;53.370;-6.314;2023-05-23T00:13:59;102541.31;;;11.81;100.00
29935;BME280;19905;53.370;-6.314;2023-05-23T00:16:29;102539.47;;;11.83;100.00
29935;BME280;19905;53.370;-6.314;2023-05-23T00:18:58;102538.66;;;11.81;100.00
29935;BME280;19905;53.370;-6.314;2023-05-23T00:21:29;102544.97;;;11.79;100.00
29935;BME280;19905;53.370;-6.314;2023-05-23T00:23:59;102544.38;;;11.74;100.00
29935;BME280;19905;53.370;-6.314;2023-05-23T00:26:28;102545.22;;;11.74;100.00
29935;BME280;19905;53.370;-6.314;2023-05-23T00:28:57;102547.06;;;11.72;100.00
29935;BME280;19905;53.370;-6.314;2023-05-23T00:31:26;102551.03;;;11.63;100.00
29935;BME280;19905;53.370;-6.314;2023-05-23T00:33:55;102546.63;;;11.64;100.00
29935;BME280;19905;53.370;-6.314;2023-05-23T00:36:24;102544.50;;;11.70;100.00
29935;BME280;19905;53.370;-6.314;2023-05-23T00:38:55;102541.63;;;11.75;100.00
29935;BME280;19905;53.370;-6.314;2023-05-23T00:41:23;102545.94;;;11.60;100.00
29935;BME280;19905;53.370;-6.314;2023-05-23T00:43:52;102541.41;;;11.62;100.00
29935;BME280;19905;53.370;-6.314;2023-05-23T00:46:21;102541.09;;;11.51;100.00
29935;BME280;19905;53.370;-6.314;2023-05-23T00:48:51;102539.31;;;11.52;100.00
29935;BME280;19905;53.370;-6.314;2023-05-23T00:51:21;102543.91;;;11.48;100.00
29935;BME280;19905;53.370;-6.314;2023-05-23T00:53:49;102530.66;;;11.48;100.00
29935;BME280;19905;53.370;-6.314;2023-05-23T00:56:19;102532.75;;;11.59;100.00
29935;BME280;19905;53.370;-6.314;2023-05-23T00:58:48;102530.28;;;11.56;100.00
29935;BME280;19905;53.370;-6.314;2023-05-23T01:01:18;102527.78;;;11.53;100.00
29935;BME280;19905;53.370;-6.314;2023-05-23T01:03:48;102535.72;;;11.53;100.00
29935;BME280;19905;53.370;-6.314;2023-05-23T01:06:16;102532.31;;;11.51;100.00
29935;BME280;19905;53.370;-6.314;2023-05-23T01:08:45;102532.16;;;11.36;100.00
29935;BME280;19905;53.370;-6.314;2023-05-23T01:11:22;102547.38;;;11.31;100.00
29935;BME280;19905;53.370;-6.314;2023-05-23T01:13:58;102544.84;;;11.30;100.00
29935;BME280;19905;53.370;-6.314;2023-05-23T01:16:34;102544.59;;;11.17;100.00
29935;BME280;19905;53.370;-6.314;2023-05-23T01:19:15;102545.53;;;11.16;100.00
29935;BME280;19905;53.370;-6.314;2023-05-23T01:21:52;102548.31;;;11.13;100.00
29935;BME280;19905;53.370;-6.314;2023-05-23T01:24:33;102556.00;;;11.17;100.00
29935;BME280;19905;53.370;-6.314;2023-05-23T01:27:07;102547.72;;;11.25;100.00
29935;BME280;19905;53.370;-6.314;2023-05-23T01:29:45;102546.31;;;11.18;100.00
29935;BME280;19905;53.370;-6.314;2023-05-23T01:32:15;102549.09;;;11.15;100.00
29935;BME280;19905;53.370;-6.314;2023-05-23T01:34:46;102559.06;;;11.10;100.00
29935;BME280;19905;53.370;-6.314;2023-05-23T01:37:15;102561.34;;;10.99;100.00
29935;BME280;19905;53.370;-6.314;2023-05-23T01:39:45;102567.66;;;10.96;100.00
29935;BME280;19905;53.370;-6.314;2023-05-23T01:42:14;102560.66;;;10.95;100.00
29935;BME280;19905;53.370;-6.314;2023-05-23T01:44:44;102566.94;;;10.92;100.00
29935;BME280;19905;53.370;-6.314;2023-05-23T01:47:14;102552.78;;;10.93;100.00
29935;BME280;19905;53.370;-6.314;2023-05-23T01:49:44;102560.16;;;10.87;100.00
29935;BME280;19905;53.370;-6.314;2023-05-23T01:52:15;102556.81;;;10.83;100.00
29935;BME280;19905;53.370;-6.314;2023-05-23T01:54:44;102563.66;;;10.87;100.00
29935;BME280;19905;53.370;-6.314;2023-05-23T01:57:15;102569.47;;;10.77;100.00
29935;BME280;19905;53.370;-6.314;2023-05-23T01:59:46;102573.03;;;10.76;100.00
29935;BME280;19905;53.370;-6.314;2023-05-23T02:02:16;102568.47;;;10.79;100.00
29935;BME280;19905;53.370;-6.314;2023-05-23T02:04:44;102564.22;;;10.94;100.00
29935;BME280;19905;53.370;-6.314;2023-05-23T02:07:14;102574.09;;;10.90;100.00
29935;BME280;19905;53.370;-6.314;2023-05-23T02:09:43;102577.53;;;10.74;100.00
29935;BME280;19905;53.370;-6.314;2023-05-23T02:12:11;102579.56;;;10.68;100.00
29935;BME280;19905;53.370;-6.314;2023-05-23T02:14:40;102572.78;;;10.63;100.00
29935;BME280;19905;53.370;-6.314;2023-05-23T02:17:10;102573.53;;;10.65;100.00
29935;BME280;19905;53.370;-6.314;2023-05-23T02:19:41;102574.06;;;10.54;100.00
29935;BME280;19905;53.370;-6.314;2023-05-23T02:22:10;102568.69;;;10.56;100.00
29935;BME280;19905;53.370;-6.314;2023-05-23T02:24:38;102570.69;;;10.51;100.00
29935;BME280;19905;53.370;-6.314;2023-05-23T02:27:07;102571.41;;;10.54;100.00
29935;BME280;19905;53.370;-6.314;2023-05-23T02:29:38;102566.81;;;10.58;100.00
29935;BME280;19905;53.370;-6.314;2023-05-23T02:32:07;102572.09;;;10.58;100.00
29935;BME280;19905;53.370;-6.314;2023-05-23T02:34:37;102570.81;;;10.48;100.00
29935;BME280;19905;53.370;-6.314;2023-05-23T02:37:06;102569.97;;;10.47;100.00
29935;BME280;19905;53.370;-6.314;2023-05-23T02:39:40;102562.97;;;10.46;100.00
29935;BME280;19905;53.370;-6.314;2023-05-23T02:42:09;102573.69;;;10.43;100.00
29935;BME280;19905;53.370;-6.314;2023-05-23T02:44:37;102572.19;;;10.37;100.00
29935;BME280;19905;53.370;-6.314;2023-05-23T02:47:06;102571.88;;;10.43;100.00
29935;BME280;19905;53.370;-6.314;2023-05-23T02:49:36;102569.97;;;10.47;100.00
29935;BME280;19905;53.370;-6.314;2023-05-23T02:52:05;102588.31;;;10.11;100.00
29935;BME280;19905;53.370;-6.314;2023-05-23T02:54:34;102579.44;;;10.12;100.00
29935;BME280;19905;53.370;-6.314;2023-05-23T02:57:03;102590.16;;;10.09;100.00
29935;BME280;19905;53.370;-6.314;2023-05-23T02:59:32;102590.16;;;10.09;100.00
29935;BME280;19905;53.370;-6.314;2023-05-23T03:02:01;102584.44;;;9.99;100.00
29935;BME280;19905;53.370;-6.314;2023-05-23T03:04:31;102588.44;;;10.08;100.00
29935;BME280;19905;53.370;-6.314;2023-05-23T03:07:01;102594.91;;;10.01;100.00
29935;BME280;19905;53.370;-6.314;2023-05-23T03:09:37;102598.44;;;9.81;100.00
29935;BME280;19905;53.370;-6.314;2023-05-23T03:12:05;102603.50;;;9.65;100.00
29935;BME280;19905;53.370;-6.314;2023-05-23T03:14:34;102595.84;;;9.59;100.00
29935;BME280;19905;53.370;-6.314;2023-05-23T03:17:03;102601.44;;;9.51;100.00
29935;BME280;19905;53.370;-6.314;2023-05-23T03:19:31;102596.81;;;9.56;100.00
29935;BME280;19905;53.370;-6.314;2023-05-23T03:22:04;102602.44;;;9.49;100.00
29935;BME280;19905;53.370;-6.314;2023-05-23T03:24:33;102611.25;;;9.48;100.00
29935;BME280;19905;53.370;-6.314;2023-05-23T03:27:02;102604.34;;;9.45;100.00
29935;BME280;19905;53.370;-6.314;2023-05-23T03:29:31;102605.06;;;9.49;100.00
29935;BME280;19905;53.370;-6.314;2023-05-23T03:32:00;102603.47;;;9.45;100.00
29935;BME280;19905;53.370;-6.314;2023-05-23T03:34:28;102602.75;;;9.41;100.00
29935;BME280;19905;53.370;-6.314;2023-05-23T03:36:59;102608.13;;;9.38;100.00
29935;BME280;19905;53.370;-6.314;2023-05-23T03:39:29;102613.59;;;9.33;100.00
29935;BME280;19905;53.370;-6.314;2023-05-23T03:41:59;102617.03;;;9.35;100.00
29935;BME280;19905;53.370;-6.314;2023-05-23T03:44:27;102615.13;;;9.39;100.00
29935;BME280;19905;53.370;-6.314;2023-05-23T03:46:56;102603.84;;;9.35;100.00
29935;BME280;19905;53.370;-6.314;2023-05-23T03:49:25;102596.72;;;9.37;100.00
29935;BME280;19905;53.370;-6.314;2023-05-23T03:51:54;102598.44;;;9.38;100.00
29935;BME280;19905;53.370;-6.314;2023-05-23T03:54:22;102604.03;;;9.31;100.00
29935;BME280;19905;53.370;-6.314;2023-05-23T03:56:52;102595.22;;;9.32;100.00
29935;BME280;19905;53.370;-6.314;2023-05-23T03:59:21;102598.88;;;9.28;100.00
29935;BME280;19905;53.370;-6.314;2023-05-23T04:01:49;102599.25;;;9.19;100.00
29935;BME280;19905;53.370;-6.314;2023-05-23T04:04:18;102604.41;;;9.22;100.00
29935;BME280;19905;53.370;-6.314;2023-05-23T04:06:47;102601.41;;;9.31;100.00
29935;BME280;19905;53.370;-6.314;2023-05-23T04:09:17;102594.28;;;9.33;100.00
29935;BME280;19905;53.370;-6.314;2023-05-23T04:11:46;102589.19;;;9.28;100.00
29935;BME280;19905;53.370;-6.314;2023-05-23T04:14:16;102591.75;;;9.30;100.00
29935;BME280;19905;53.370;-6.314;2023-05-23T04:16:46;102590.00;;;9.30;100.00
29935;BME280;19905;53.370;-6.314;2023-05-23T04:19:14;102585.25;;;9.38;100.00
29935;BME280;19905;53.370;-6.314;2023-05-23T04:21:45;102584.34;;;9.39;100.00
29935;BME280;19905;53.370;-6.314;2023-05-23T04:24:14;102581.56;;;9.42;100.00
29935;BME280;19905;53.370;-6.314;2023-05-23T04:26:42;102588.44;;;9.47;100.00
29935;BME280;19905;53.370;-6.314;2023-05-23T04:29:11;102590.13;;;9.48;100.00
29935;BME280;19905;53.370;-6.314;2023-05-23T04:31:41;102588.97;;;9.55;100.00
29935;BME280;19905;53.370;-6.314;2023-05-23T04:34:12;102588.78;;;9.59;100.00
29935;BME280;19905;53.370;-6.314;2023-05-23T04:36:41;102580.88;;;9.59;100.00
29935;BME280;19905;53.370;-6.314;2023-05-23T04:39:10;102583.31;;;9.64;100.00
29935;BME280;19905;53.370;-6.314;2023-05-23T04:41:40;102583.44;;;9.61;100.00
29935;BME280;19905;53.370;-6.314;2023-05-23T04:44:11;102594.13;;;9.58;100.00
29935;BME280;19905;53.370;-6.314;2023-05-23T04:46:42;102593.44;;;9.53;100.00
29935;BME280;19905;53.370;-6.314;2023-05-23T04:49:11;102586.16;;;9.59;100.00
29935;BME280;19905;53.370;-6.314;2023-05-23T04:51:40;102595.00;;;9.58;100.00
29935;BME280;19905;53.370;-6.314;2023-05-23T04:54:08;102590.81;;;9.53;100.00
29935;BME280;19905;53.370;-6.314;2023-05-23T04:56:38;102598.91;;;9.48;100.00
29935;BME280;19905;53.370;-6.314;2023-05-23T04:59:08;102600.69;;;9.48;100.00
29935;BME280;19905;53.370;-6.314;2023-05-23T05:01:37;102597.00;;;9.52;100.00
29935;BME280;19905;53.370;-6.314;2023-05-23T05:04:08;102593.06;;;9.62;100.00
29935;BME280;19905;53.370;-6.314;2023-05-23T05:06:37;102600.97;;;9.62;100.00
29935;BME280;19905;53.370;-6.314;2023-05-23T05:09:07;102606.06;;;9.66;100.00
29935;BME280;19905;53.370;-6.314;2023-05-23T05:11:36;102603.09;;;9.74;100.00
29935;BME280;19905;53.370;-6.314;2023-05-23T05:14:07;102604.41;;;9.64;100.00
29935;BME280;19905;53.370;-6.314;2023-05-23T05:16:35;102608.50;;;9.71;100.00
29935;BME280;19905;53.370;-6.314;2023-05-23T05:19:04;102613.31;;;9.61;100.00
29935;BME280;19905;53.370;-6.314;2023-05-23T05:21:35;102603.38;;;9.68;100.00
29935;BME280;19905;53.370;-6.314;2023-05-23T05:24:05;102610.34;;;9.69;100.00
29935;BME280;19905;53.370;-6.314;2023-05-23T05:26:35;102605.75;;;9.74;100.00
29935;BME280;19905;53.370;-6.314;2023-05-23T05:29:04;102600.47;;;9.74;100.00
29935;BME280;19905;53.370;-6.314;2023-05-23T05:31:35;102601.97;;;9.80;100.00
29935;BME280;19905;53.370;-6.314;2023-05-23T05:34:04;102594.91;;;9.80;100.00
29935;BME280;19905;53.370;-6.314;2023-05-23T05:36:37;102605.88;;;9.91;100.00
29935;BME280;19905;53.370;-6.314;2023-05-23T05:39:14;102594.28;;;9.96;100.00
29935;BME280;19905;53.370;-6.314;2023-05-23T05:41:43;102596.94;;;9.94;100.00
29935;BME280;19905;53.370;-6.314;2023-05-23T05:44:12;102599.59;;;9.94;100.00
29935;BME280;19905;53.370;-6.314;2023-05-23T05:46:40;102602.31;;;9.92;100.00
29935;BME280;19905;53.370;-6.314;2023-05-23T05:49:09;102593.22;;;10.00;100.00
29935;BME280;19905;53.370;-6.314;2023-05-23T05:51:39;102598.41;;;10.01;100.00
29935;BME280;19905;53.370;-6.314;2023-05-23T05:54:08;102587.72;;;10.04;100.00
29935;BME280;19905;53.370;-6.314;2023-05-23T05:56:37;102592.16;;;10.04;100.00
29935;BME280;19905;53.370;-6.314;2023-05-23T05:59:05;102587.00;;;10.01;100.00
29935;BME280;19905;53.370;-6.314;2023-05-23T06:01:34;102589.44;;;10.05;100.00
29935;BME280;19905;53.370;-6.314;2023-05-23T06:04:04;102596.16;;;10.12;100.00
29935;BME280;19905;53.370;-6.314;2023-05-23T06:06:33;102590.88;;;10.12;100.00
29935;BME280;19905;53.370;-6.314;2023-05-23T06:09:03;102588.59;;;10.05;100.00
29935;BME280;19905;53.370;-6.314;2023-05-23T06:11:32;102590.41;;;10.03;100.00
29935;BME280;19905;53.370;-6.314;2023-05-23T06:14:01;102591.97;;;10.08;100.00
29935;BME280;19905;53.370;-6.314;2023-05-23T06:16:29;102586.81;;;10.05;100.00
29935;BME280;19905;53.370;-6.314;2023-05-23T06:18:58;102590.09;;;10.10;100.00
29935;BME280;19905;53.370;-6.314;2023-05-23T06:21:27;102595.03;;;10.18;100.00
29935;BME280;19905;53.370;-6.314;2023-05-23T06:23:55;102582.94;;;10.12;100.00
29935;BME280;19905;53.370;-6.314;2023-05-23T06:26:25;102583.63;;;10.17;100.00
29935;BME280;19905;53.370;-6.314;2023-05-23T06:28:54;102595.25;;;10.13;100.00
29935;BME280;19905;53.370;-6.314;2023-05-23T06:31:22;102594.09;;;10.19;100.00
29935;BME280;19905;53.370;-6.314;2023-05-23T06:33:51;102603.81;;;10.18;100.00
29935;BME280;19905;53.370;-6.314;2023-05-23T06:36:20;102612.38;;;10.24;100.00
29935;BME280;19905;53.370;-6.314;2023-05-23T06:38:49;102609.75;;;10.24;100.00
29935;BME280;19905;53.370;-6.314;2023-05-23T06:41:17;102612.22;;;10.28;100.00
29935;BME280;19905;53.370;-6.314;2023-05-23T06:43:47;102604.94;;;10.33;100.00
29935;BME280;19905;53.370;-6.314;2023-05-23T06:46:16;102614.66;;;10.33;100.00
29935;BME280;19905;53.370;-6.314;2023-05-23T06:48:45;102604.44;;;10.44;100.00
29935;BME280;19905;53.370;-6.314;2023-05-23T06:51:15;102607.38;;;10.57;100.00
29935;BME280;19905;53.370;-6.314;2023-05-23T06:53:43;102613.91;;;10.50;100.00
29935;BME280;19905;53.370;-6.314;2023-05-23T06:56:12;102613.25;;;10.45;100.00
29935;BME280;19905;53.370;-6.314;2023-05-23T06:58:40;102606.84;;;10.69;100.00
29935;BME280;19905;53.370;-6.314;2023-05-23T07:01:14;102597.25;;;10.66;100.00
29935;BME280;19905;53.370;-6.314;2023-05-23T07:03:43;102602.41;;;10.69;100.00
29935;BME280;19905;53.370;-6.314;2023-05-23T07:06:12;102601.88;;;10.80;100.00
29935;BME280;19905;53.370;-6.314;2023-05-23T07:08:40;102605.13;;;10.87;100.00
29935;BME280;19905;53.370;-6.314;2023-05-23T07:11:09;102593.38;;;10.92;100.00
29935;BME280;19905;53.370;-6.314;2023-05-23T07:13:38;102596.44;;;11.02;100.00
29935;BME280;19905;53.370;-6.314;2023-05-23T07:16:06;102596.53;;;11.01;100.00
29935;BME280;19905;53.370;-6.314;2023-05-23T07:18:36;102601.44;;;11.08;100.00
29935;BME280;19905;53.370;-6.314;2023-05-23T07:21:05;102601.06;;;11.16;100.00
29935;BME280;19905;53.370;-6.314;2023-05-23T07:23:34;102596.50;;;11.19;100.00
29935;BME280;19905;53.370;-6.314;2023-05-23T07:26:02;102596.81;;;11.31;100.00
29935;BME280;19905;53.370;-6.314;2023-05-23T07:28:31;102594.09;;;11.32;100.00
29935;BME280;19905;53.370;-6.314;2023-05-23T07:31:00;102594.56;;;11.40;100.00
29935;BME280;19905;53.370;-6.314;2023-05-23T07:33:29;102601.81;;;11.54;100.00
29935;BME280;19905;53.370;-6.314;2023-05-23T07:36:01;102587.47;;;11.58;100.00
29935;BME280;19905;53.370;-6.314;2023-05-23T07:38:30;102586.56;;;11.59;100.00
29935;BME280;19905;53.370;-6.314;2023-05-23T07:40:59;102582.56;;;11.68;100.00
29935;BME280;19905;53.370;-6.314;2023-05-23T07:43:37;102587.59;;;11.74;100.00
29935;BME280;19905;53.370;-6.314;2023-05-23T07:46:06;102578.06;;;11.70;100.00
29935;BME280;19905;53.370;-6.314;2023-05-23T07:48:35;102576.53;;;11.83;100.00
29935;BME280;19905;53.370;-6.314;2023-05-23T07:51:05;102573.94;;;11.82;100.00
29935;BME280;19905;53.370;-6.314;2023-05-23T07:53:34;102590.03;;;11.77;100.00
29935;BME280;19905;53.370;-6.314;2023-05-23T07:56:06;102598.78;;;11.79;100.00
29935;BME280;19905;53.370;-6.314;2023-05-23T07:58:34;102596.41;;;11.92;100.00
29935;BME280;19905;53.370;-6.314;2023-05-23T08:01:03;102597.25;;;12.26;100.00
29935;BME280;19905;53.370;-6.314;2023-05-23T08:03:31;102595.31;;;12.29;100.00
29935;BME280;19905;53.370;-6.314;2023-05-23T08:06:00;102591.31;;;12.38;100.00
29935;BME280;19905;53.370;-6.314;2023-05-23T08:08:30;102591.13;;;12.41;100.00
29935;BME280;19905;53.370;-6.314;2023-05-23T08:11:00;102593.97;;;12.54;100.00
29935;BME280;19905;53.370;-6.314;2023-05-23T08:13:29;102594.00;;;12.69;100.00
29935;BME280;19905;53.370;-6.314;2023-05-23T08:15:58;102592.78;;;12.91;100.00
29935;BME280;19905;53.370;-6.314;2023-05-23T08:18:27;102585.53;;;13.10;100.00
29935;BME280;19905;53.370;-6.314;2023-05-23T08:20:56;102585.94;;;13.34;100.00
29935;BME280;19905;53.370;-6.314;2023-05-23T08:23:25;102579.47;;;13.24;100.00
29935;BME280;19905;53.370;-6.314;2023-05-23T08:25:56;102574.66;;;13.15;100.00
29935;BME280;19905;53.370;-6.314;2023-05-23T08:28:24;102571.22;;;13.13;100.00
29935;BME280;19905;53.370;-6.314;2023-05-23T08:30:53;102572.75;;;13.17;100.00
29935;BME280;19905;53.370;-6.314;2023-05-23T08:33:23;102570.84;;;13.19;100.00
29935;BME280;19905;53.370;-6.314;2023-05-23T08:35:51;102576.00;;;13.38;100.00
29935;BME280;19905;53.370;-6.314;2023-05-23T08:38:20;102575.53;;;13.45;100.00
29935;BME280;19905;53.370;-6.314;2023-05-23T08:40:53;102577.97;;;13.34;100.00
29935;BME280;19905;53.370;-6.314;2023-05-23T08:43:25;102565.28;;;13.39;100.00
29935;BME280;19905;53.370;-6.314;2023-05-23T08:45:54;102559.63;;;13.60;100.00
29935;BME280;19905;53.370;-6.314;2023-05-23T08:48:24;102567.53;;;13.61;100.00
29935;BME280;19905;53.370;-6.314;2023-05-23T08:50:54;102567.84;;;13.71;100.00
29935;BME280;19905;53.370;-6.314;2023-05-23T08:53:26;102565.25;;;13.69;100.00
29935;BME280;19905;53.370;-6.314;2023-05-23T08:55:57;102570.50;;;13.71;100.00
29935;BME280;19905;53.370;-6.314;2023-05-23T08:58:30;102567.13;;;13.97;100.00
29935;BME280;19905;53.370;-6.314;2023-05-23T09:01:01;102564.81;;;13.91;100.00
29935;BME280;19905;53.370;-6.314;2023-05-23T09:03:30;102554.28;;;13.90;100.00
29935;BME280;19905;53.370;-6.314;2023-05-23T09:05:59;102554.19;;;14.06;100.00
29935;BME280;19905;53.370;-6.314;2023-05-23T09:08:28;102548.78;;;14.21;100.00
29935;BME280;19905;53.370;-6.314;2023-05-23T09:10:57;102542.41;;;14.38;100.00
29935;BME280;19905;53.370;-6.314;2023-05-23T09:13:31;102534.94;;;14.31;100.00
29935;BME280;19905;53.370;-6.314;2023-05-23T09:16:02;102538.72;;;14.27;100.00
29935;BME280;19905;53.370;-6.314;2023-05-23T09:18:35;102534.94;;;14.31;100.00
29935;BME280;19905;53.370;-6.314;2023-05-23T09:21:04;102533.50;;;14.39;100.00
29935;BME280;19905;53.370;-6.314;2023-05-23T09:23:34;102529.44;;;14.48;100.00
29935;BME280;19905;53.370;-6.314;2023-05-23T09:26:03;102528.91;;;14.56;100.00
29935;BME280;19905;53.370;-6.314;2023-05-23T09:28:35;102525.00;;;14.61;100.00
29935;BME280;19905;53.370;-6.314;2023-05-23T09:31:06;102534.75;;;14.48;100.00
29935;BME280;19905;53.370;-6.314;2023-05-23T09:33:37;102529.13;;;14.80;100.00
29935;BME280;19905;53.370;-6.314;2023-05-23T09:36:06;102521.06;;;15.08;100.00
29935;BME280;19905;53.370;-6.314;2023-05-23T09:38:37;102517.78;;;15.30;100.00
29935;BME280;19905;53.370;-6.314;2023-05-23T09:41:06;102516.94;;;15.30;100.00
29935;BME280;19905;53.370;-6.314;2023-05-23T09:43:48;102524.03;;;15.16;100.00
29935;BME280;19905;53.370;-6.314;2023-05-23T09:46:17;102515.09;;;15.05;100.00
29935;BME280;19905;53.370;-6.314;2023-05-23T09:48:46;102514.81;;;15.35;100.00
29935;BME280;19905;53.370;-6.314;2023-05-23T09:51:18;102517.63;;;15.06;100.00
29935;BME280;19905;53.370;-6.314;2023-05-23T09:53:47;102513.75;;;14.85;100.00
29935;BME280;19905;53.370;-6.314;2023-05-23T09:56:17;102502.50;;;14.94;100.00
29935;BME280;19905;53.370;-6.314;2023-05-23T09:58:48;102508.34;;;15.26;100.00
29935;BME280;19905;53.370;-6.314;2023-05-23T10:01:17;102500.13;;;15.29;100.00
29935;BME280;19905;53.370;-6.314;2023-05-23T10:03:48;102505.88;;;15.48;100.00
29935;BME280;19905;53.370;-6.314;2023-05-23T10:06:24;102511.38;;;15.72;100.00
29935;BME280;19905;53.370;-6.314;2023-05-23T10:08:55;102509.50;;;15.35;100.00
29935;BME280;19905;53.370;-6.314;2023-05-23T10:14:37;102509.41;;;15.62;100.00
29935;BME280;19905;53.370;-6.314;2023-05-23T10:17:16;102512.00;;;15.63;100.00
29935;BME280;19905;53.370;-6.314;2023-05-23T10:19:51;102507.91;;;15.58;100.00
29935;BME280;19905;53.370;-6.314;2023-05-23T10:22:22;102512.44;;;16.08;100.00
29935;BME280;19905;53.370;-6.314;2023-05-23T10:24:52;102503.63;;;16.32;100.00
29935;BME280;19905;53.370;-6.314;2023-05-23T10:27:21;102505.97;;;16.36;100.00
29935;BME280;19905;53.370;-6.314;2023-05-23T10:29:51;102507.19;;;16.19;100.00
29935;BME280;19905;53.370;-6.314;2023-05-23T10:32:20;102504.75;;;16.04;100.00
29935;BME280;19905;53.370;-6.314;2023-05-23T10:34:54;102487.28;;;15.99;100.00
29935;BME280;19905;53.370;-6.314;2023-05-23T10:37:28;102498.56;;;16.40;100.00
29935;BME280;19905;53.370;-6.314;2023-05-23T10:40:04;102503.50;;;16.46;100.00
29935;BME280;19905;53.370;-6.314;2023-05-23T10:45:17;102503.41;;;16.35;100.00
29935;BME280;19905;53.370;-6.314;2023-05-23T10:47:46;102492.03;;;16.20;100.00
29935;BME280;19905;53.370;-6.314;2023-05-23T10:50:30;102478.97;;;16.04;100.00
29935;BME280;19905;53.370;-6.314;2023-05-23T10:53:01;102485.56;;;15.98;100.00
29935;BME280;19905;53.370;-6.314;2023-05-23T10:55:33;102484.34;;;16.15;100.00
29935;BME280;19905;53.370;-6.314;2023-05-23T10:58:09;102487.72;;;16.30;100.00
29935;BME280;19905;53.370;-6.314;2023-05-23T11:00:49;102487.00;;;16.28;100.00
29935;BME280;19905;53.370;-6.314;2023-05-23T11:03:25;102488.81;;;16.64;100.00
29935;BME280;19905;53.370;-6.314;2023-05-23T11:05:57;102491.84;;;16.84;100.00
29935;BME280;19905;53.370;-6.314;2023-05-23T11:08:26;102493.16;;;16.78;100.00
29935;BME280;19905;53.370;-6.314;2023-05-23T11:11:13;102494.13;;;16.64;100.00
29935;BME280;19905;53.370;-6.314;2023-05-23T11:13:55;102488.66;;;16.79;100.00
29935;BME280;19905;53.370;-6.314;2023-05-23T11:16:30;102476.63;;;17.08;100.00
29935;BME280;19905;53.370;-6.314;2023-05-23T11:19:24;102463.28;;;17.08;100.00
29935;BME280;19905;53.370;-6.314;2023-05-23T11:21:58;102462.97;;;17.24;100.00
29935;BME280;19905;53.370;-6.314;2023-05-23T11:24:49;102459.75;;;16.96;100.00
29935;BME280;19905;53.370;-6.314;2023-05-23T11:27:25;102469.75;;;17.17;100.00
29935;BME280;19905;53.370;-6.314;2023-05-23T11:30:00;102464.22;;;17.42;100.00
29935;BME280;19905;53.370;-6.314;2023-05-23T11:32:33;102459.81;;;17.19;100.00
29935;BME280;19905;53.370;-6.314;2023-05-23T11:35:03;102462.63;;;17.40;100.00
29935;BME280;19905;53.370;-6.314;2023-05-23T11:37:32;102452.38;;;17.80;100.00
29935;BME280;19905;53.370;-6.314;2023-05-23T11:40:28;102461.00;;;17.84;100.00
29935;BME280;19905;53.370;-6.314;2023-05-23T11:42:58;102451.59;;;18.23;100.00
29935;BME280;19905;53.370;-6.314;2023-05-23T11:45:28;102448.28;;;18.42;100.00
29935;BME280;19905;53.370;-6.314;2023-05-23T11:48:04;102457.31;;;18.29;100.00
29935;BME280;19905;53.370;-6.314;2023-05-23T11:50:33;102454.16;;;18.13;100.00
29935;BME280;19905;53.370;-6.314;2023-05-23T11:53:02;102450.88;;;18.10;100.00
29935;BME280;19905;53.370;-6.314;2023-05-23T11:55:31;102449.44;;;18.17;100.00
29935;BME280;19905;53.370;-6.314;2023-05-23T11:58:00;102451.88;;;18.74;100.00
29935;BME280;19905;53.370;-6.314;2023-05-23T12:00:28;102444.22;;;18.91;100.00
29935;BME280;19905;53.370;-6.314;2023-05-23T12:03:05;102447.00;;;19.21;100.00
29935;BME280;19905;53.370;-6.314;2023-05-23T12:05:35;102454.50;;;19.07;100.00
29935;BME280;19905;53.370;-6.314;2023-05-23T12:08:03;102446.50;;;18.20;100.00
29935;BME280;19905;53.370;-6.314;2023-05-23T12:10:32;102443.28;;;18.48;100.00
29935;BME280;19905;53.370;-6.314;2023-05-23T12:13:01;102438.38;;;18.53;100.00
29935;BME280;19905;53.370;-6.314;2023-05-23T12:15:31;102439.44;;;18.73;100.00
29935;BME280;19905;53.370;-6.314;2023-05-23T12:18:01;102443.06;;;18.84;100.00
29935;BME280;19905;53.370;-6.314;2023-05-23T12:20:31;102441.06;;;18.53;100.00
29935;BME280;19905;53.370;-6.314;2023-05-23T12:23:03;102430.81;;;18.70;100.00
29935;BME280;19905;53.370;-6.314;2023-05-23T12:25:37;102433.69;;;18.78;100.00
29935;BME280;19905;53.370;-6.314;2023-05-23T12:28:08;102440.13;;;18.43;100.00
29935;BME280;19905;53.370;-6.314;2023-05-23T12:30:43;102432.66;;;18.69;100.00
29935;BME280;19905;53.370;-6.314;2023-05-23T12:33:13;102435.41;;;18.79;100.00
29935;BME280;19905;53.370;-6.314;2023-05-23T12:35:42;102425.03;;;18.86;100.00
29935;BME280;19905;53.370;-6.314;2023-05-23T12:38:14;102430.44;;;18.63;100.00
29935;BME280;19905;53.370;-6.314;2023-05-23T12:40:43;102435.31;;;18.26;100.00
29935;BME280;19905;53.370;-6.314;2023-05-23T12:43:14;102425.53;;;18.47;100.00
29935;BME280;19905;53.370;-6.314;2023-05-23T12:45:42;102421.09;;;18.25;100.00
29935;BME280;19905;53.370;-6.314;2023-05-23T12:48:12;102414.38;;;18.63;100.00
29935;BME280;19905;53.370;-6.314;2023-05-23T12:50:41;102406.00;;;19.10;100.00
29935;BME280;19905;53.370;-6.314;2023-05-23T12:53:10;102404.66;;;19.15;100.00
29935;BME280;19905;53.370;-6.314;2023-05-23T12:55:38;102413.53;;;19.46;100.00